Time;durP1;ratioP1;P1;durP2;ratioP2;P2;SDS_P1;SDS_P2;PMS_P1;PMS_P2;Temp;Humidity;BMP_temperature;BMP_pressure;BME280_temperature;BME280_humidity;BME280_pressure;Samples;Min_cycle;Max_cycle;Signal;HPM_P1;HPM_P2
2023/06/24 00:00:06;;;;;;;4.80;4.40;;;;;;;;;;5011429;28;20767;-84
2023/06/24 00:02:35;;;;;;;6.67;4.47;;;;;;;;;;5048879;28;20292;-84
2023/06/24 00:05:04;;;;;;;5.10;4.57;;;;;;;;;;5051343;28;20237;-84
2023/06/24 00:07:31;;;;;;;5.30;4.60;;;;;;;;;;5044648;28;20715;-84
2023/06/24 00:09:58;;;;;;;5.03;4.13;;;;;;;;;;5031323;28;20241;-84
2023/06/24 00:12:26;;;;;;;7.03;4.33;;;;;;;;;;5048642;28;20202;-84
2023/06/24 00:14:53;;;;;;;4.73;4.23;;;;;;;;;;5051099;28;20264;-84
2023/06/24 00:17:20;;;;;;;4.77;4.37;;;;;;;;;;5048259;28;20203;-84
2023/06/24 00:19:49;;;;;;;4.40;4.00;;;;;;;;;;5050634;28;20241;-84
2023/06/24 00:22:16;;;;;;;6.10;4.17;;;;;;;;;;5050918;28;20680;-84
2023/06/24 00:24:43;;;;;;;4.73;4.17;;;;;;;;;;5050932;28;20861;-84
2023/06/24 00:27:10;;;;;;;4.57;4.07;;;;;;;;;;5051776;28;20253;-84
2023/06/24 00:29:37;;;;;;;6.10;4.67;;;;;;;;;;5050599;28;20241;-84
2023/06/24 00:32:05;;;;;;;4.43;4.03;;;;;;;;;;5051478;28;20217;-85
2023/06/24 00:34:32;;;;;;;5.73;4.07;;;;;;;;;;5050197;28;20237;-84
2023/06/24 00:37:02;;;;;;;4.80;4.40;;;;;;;;;;5039210;28;20199;-85
2023/06/24 00:39:29;;;;;;;4.43;4.03;;;;;;;;;;5030336;28;20599;-85
2023/06/24 00:41:56;;;;;;;5.33;4.30;;;;;;;;;;5030750;28;20202;-85
2023/06/24 00:44:23;;;;;;;5.60;4.40;;;;;;;;;;5030169;28;20242;-84
2023/06/24 00:46:50;;;;;;;5.00;4.37;;;;;;;;;;5031128;28;20234;-84
2023/06/24 00:49:17;;;;;;;5.73;4.33;;;;;;;;;;5030265;28;20245;-84
2023/06/24 00:51:50;;;;;;;5.33;4.20;;;;;;;;;;5040971;28;20202;-84
2023/06/24 00:54:18;;;;;;;5.00;4.50;;;;;;;;;;5050085;28;20267;-84
2023/06/24 00:56:45;;;;;;;4.77;4.37;;;;;;;;;;5044539;28;20203;-84
2023/06/24 00:59:14;;;;;;;5.20;4.70;;;;;;;;;;5034293;28;20238;-84
2023/06/24 01:01:41;;;;;;;5.10;4.60;;;;;;;;;;5044903;28;20202;-84
2023/06/24 01:04:09;;;;;;;5.00;4.50;;;;;;;;;;5054829;28;20239;-84
2023/06/24 01:06:43;;;;;;;6.13;4.87;;;;;;;;;;5036138;28;20601;-84
2023/06/24 01:09:10;;;;;;;4.87;4.37;;;;;;;;;;5035155;28;20310;-84
2023/06/24 01:11:38;;;;;;;5.30;4.00;;;;;;;;;;5044014;28;20206;-84
2023/06/24 01:14:05;;;;;;;5.37;4.87;;;;;;;;;;5054895;28;20241;-84
2023/06/24 01:16:35;;;;;;;7.13;5.17;;;;;;;;;;5055300;28;20201;-83
2023/06/24 01:19:06;;;;;;;4.57;4.17;;;;;;;;;;5054761;28;20226;-84
2023/06/24 01:21:43;;;;;;;5.97;4.67;;;;;;;;;;5047177;28;20195;-84
2023/06/24 01:24:20;;;;;;;4.97;4.47;;;;;;;;;;5034629;28;20239;-84
2023/06/24 01:27:05;;;;;;;4.60;4.20;;;;;;;;;;5034848;28;20210;-84
2023/06/24 01:29:54;;;;;;;5.23;4.73;;;;;;;;;;5024772;28;20663;-84
2023/06/24 01:32:27;;;;;;;9.70;4.43;;;;;;;;;;5034762;28;20655;-84
2023/06/24 01:34:57;;;;;;;4.73;4.33;;;;;;;;;;5034461;28;20292;-84
2023/06/24 01:37:27;;;;;;;5.10;4.00;;;;;;;;;;5034996;28;20202;-84
2023/06/24 01:39:59;;;;;;;5.20;4.70;;;;;;;;;;5034197;28;20716;-84
2023/06/24 01:42:27;;;;;;;7.70;4.63;;;;;;;;;;5034681;28;20714;-84
2023/06/24 01:44:54;;;;;;;4.83;4.20;;;;;;;;;;5033951;28;20261;-84
2023/06/24 01:47:23;;;;;;;6.67;4.37;;;;;;;;;;5034618;28;20231;-84
2023/06/24 01:49:53;;;;;;;6.77;4.60;;;;;;;;;;5034219;28;20235;-84
2023/06/24 01:52:22;;;;;;;4.83;4.00;;;;;;;;;;5034894;28;20218;-84
2023/06/24 01:54:50;;;;;;;5.10;4.20;;;;;;;;;;5033760;28;20329;-84
2023/06/24 01:57:19;;;;;;;6.40;5.20;;;;;;;;;;5034440;28;20207;-84
2023/06/24 01:59:47;;;;;;;5.30;4.80;;;;;;;;;;5033725;28;20746;-84
2023/06/24 02:02:14;;;;;;;4.70;4.20;;;;;;;;;;5034385;28;20697;-84
2023/06/24 02:04:42;;;;;;;4.77;4.30;;;;;;;;;;5033906;28;20234;-84
2023/06/24 02:07:11;;;;;;;5.67;4.57;;;;;;;;;;5033365;28;20223;-85
2023/06/24 02:09:38;;;;;;;5.30;4.80;;;;;;;;;;5033810;28;20604;-84
2023/06/24 02:12:07;;;;;;;5.33;4.83;;;;;;;;;;5034393;28;20207;-85
2023/06/24 02:14:36;;;;;;;6.83;4.70;;;;;;;;;;5048298;28;20707;-85
2023/06/24 02:17:05;;;;;;;6.27;4.50;;;;;;;;;;5053548;28;20709;-85
2023/06/24 02:19:32;;;;;;;4.90;4.37;;;;;;;;;;5053549;28;20241;-84
2023/06/24 02:22:00;;;;;;;4.97;4.47;;;;;;;;;;5054134;28;20217;-84
2023/06/24 02:24:29;;;;;;;4.93;4.43;;;;;;;;;;5053242;28;20295;-84
2023/06/24 02:26:57;;;;;;;5.07;4.57;;;;;;;;;;5053749;28;20276;-84
2023/06/24 02:29:27;;;;;;;15.27;4.50;;;;;;;;;;5053422;28;20245;-84
2023/06/24 02:31:54;;;;;;;4.77;4.37;;;;;;;;;;5053876;28;20210;-84
2023/06/24 02:34:21;;;;;;;6.47;4.50;;;;;;;;;;5053216;28;20242;-84
2023/06/24 02:36:48;;;;;;;4.60;4.20;;;;;;;;;;5053355;28;20702;-84
2023/06/24 02:39:15;;;;;;;4.90;4.40;;;;;;;;;;5053107;28;20229;-84
2023/06/24 02:41:44;;;;;;;5.43;4.93;;;;;;;;;;5053462;28;20690;-84
2023/06/24 02:44:11;;;;;;;6.60;4.83;;;;;;;;;;5053100;28;20280;-84
2023/06/24 02:46:38;;;;;;;5.30;4.80;;;;;;;;;;5053373;28;20210;-84
2023/06/24 02:49:06;;;;;;;4.97;4.57;;;;;;;;;;5053056;28;20237;-84
2023/06/24 02:51:33;;;;;;;5.40;4.43;;;;;;;;;;5053459;28;20548;-85
2023/06/24 02:54:02;;;;;;;6.27;4.97;;;;;;;;;;5052690;28;20245;-84
2023/06/24 02:56:30;;;;;;;5.40;4.90;;;;;;;;;;5053398;28;20205;-84
2023/06/24 02:58:58;;;;;;;5.70;4.20;;;;;;;;;;5052467;28;20226;-85
2023/06/24 03:01:26;;;;;;;6.57;5.10;;;;;;;;;;5053049;28;20564;-85
2023/06/24 03:03:54;;;;;;;5.43;4.80;;;;;;;;;;5052696;28;20234;-85
2023/06/24 03:06:22;;;;;;;5.50;5.00;;;;;;;;;;5053206;28;20582;-84
2023/06/24 03:08:49;;;;;;;4.90;4.50;;;;;;;;;;5052544;28;20257;-84
2023/06/24 03:11:16;;;;;;;5.20;4.73;;;;;;;;;;5053292;28;20207;-86
2023/06/24 03:13:43;;;;;;;5.70;5.10;;;;;;;;;;5052452;28;20238;-85
2023/06/24 03:16:12;;;;;;;5.57;5.07;;;;;;;;;;5052729;28;20456;-84
2023/06/24 03:18:41;;;;;;;4.97;4.47;;;;;;;;;;5036347;28;20230;-85
2023/06/24 03:21:08;;;;;;;5.80;5.17;;;;;;;;;;5032755;28;20211;-85
2023/06/24 03:23:35;;;;;;;5.73;5.13;;;;;;;;;;5032119;28;20613;-84
2023/06/24 03:26:02;;;;;;;5.13;4.67;;;;;;;;;;5035050;28;20209;-84
2023/06/24 03:28:29;;;;;;;6.27;5.03;;;;;;;;;;5046224;28;20242;-83
2023/06/24 03:30:56;;;;;;;5.27;4.67;;;;;;;;;;5032577;28;20210;-82
2023/06/24 03:33:26;;;;;;;4.90;4.50;;;;;;;;;;5044807;28;20338;-83
2023/06/24 03:35:54;;;;;;;5.20;4.70;;;;;;;;;;5052695;28;20652;-82
2023/06/24 03:38:21;;;;;;;5.77;5.17;;;;;;;;;;5052282;28;20232;-82
2023/06/24 03:40:48;;;;;;;5.60;5.10;;;;;;;;;;5045328;28;20230;-82
2023/06/24 03:43:15;;;;;;;6.40;4.67;;;;;;;;;;5031965;28;21127;-83
2023/06/24 03:45:42;;;;;;;5.40;4.90;;;;;;;;;;5032106;28;20700;-82
2023/06/24 03:48:09;;;;;;;6.37;5.53;;;;;;;;;;5048686;28;20223;-82
2023/06/24 03:50:37;;;;;;;5.27;4.77;;;;;;;;;;5051912;28;20230;-82
2023/06/24 03:53:05;;;;;;;5.83;5.23;;;;;;;;;;5050606;28;20217;-83
2023/06/24 03:55:32;;;;;;;5.37;4.83;;;;;;;;;;5031878;28;20238;-83
2023/06/24 03:57:59;;;;;;;7.27;4.80;;;;;;;;;;5032284;28;20207;-83
2023/06/24 04:00:27;;;;;;;5.07;4.60;;;;;;;;;;5031650;28;20609;-83
2023/06/24 04:02:54;;;;;;;5.83;4.50;;;;;;;;;;5033831;28;20594;-82
2023/06/24 04:05:22;;;;;;;4.63;4.23;;;;;;;;;;5031708;28;20254;-82
2023/06/24 04:07:50;;;;;;;6.47;5.10;;;;;;;;;;5037920;28;20283;-83
2023/06/24 04:10:18;;;;;;;5.37;4.87;;;;;;;;;;5051387;28;20234;-82
2023/06/24 04:12:45;;;;;;;4.93;4.43;;;;;;;;;;5052270;28;20210;-83
2023/06/24 04:15:12;;;;;;;5.20;4.70;;;;;;;;;;5031263;28;20242;-82
2023/06/24 04:17:39;;;;;;;5.60;5.10;;;;;;;;;;5026963;28;20230;-81
2023/06/24 04:20:08;;;;;;;6.33;4.80;;;;;;;;;;5048761;28;20230;-83
2023/06/24 04:22:35;;;;;;;5.60;5.10;;;;;;;;;;5052018;28;20660;-83
2023/06/24 04:25:04;;;;;;;9.87;5.57;;;;;;;;;;5033868;28;20238;-83
2023/06/24 04:27:31;;;;;;;5.63;5.03;;;;;;;;;;5031333;28;20235;-82
2023/06/24 04:29:58;;;;;;;5.43;4.73;;;;;;;;;;5037484;28;20232;-82
2023/06/24 04:32:25;;;;;;;6.30;5.70;;;;;;;;;;5051563;28;20206;-83
2023/06/24 04:34:52;;;;;;;6.27;5.67;;;;;;;;;;5051159;28;20240;-82
2023/06/24 04:37:19;;;;;;;6.27;5.67;;;;;;;;;;5051480;28;20687;-82
2023/06/24 04:39:46;;;;;;;9.13;5.80;;;;;;;;;;5035576;28;20234;-82
2023/06/24 04:42:15;;;;;;;7.33;5.80;;;;;;;;;;5031540;28;20245;-82
2023/06/24 04:44:42;;;;;;;8.03;5.33;;;;;;;;;;5030994;28;20250;-83
2023/06/24 04:47:09;;;;;;;9.13;5.93;;;;;;;;;;5031254;28;20221;-82
2023/06/24 04:49:36;;;;;;;8.17;5.23;;;;;;;;;;5031119;28;20253;-82
2023/06/24 04:52:03;;;;;;;5.77;5.03;;;;;;;;;;5031435;28;20203;-82
2023/06/24 04:54:30;;;;;;;6.60;5.87;;;;;;;;;;5030986;28;20247;-82
2023/06/24 04:56:57;;;;;;;5.97;5.37;;;;;;;;;;5031487;28;20211;-83
2023/06/24 04:59:25;;;;;;;6.70;5.90;;;;;;;;;;5030816;28;20572;-83
2023/06/24 05:01:52;;;;;;;6.63;5.77;;;;;;;;;;5031949;28;20212;-83
2023/06/24 05:04:20;;;;;;;8.00;6.13;;;;;;;;;;5031066;28;20230;-83
2023/06/24 05:06:47;;;;;;;12.47;6.30;;;;;;;;;;5031575;28;20210;-83
2023/06/24 05:09:14;;;;;;;9.00;6.30;;;;;;;;;;5031725;28;20245;-93
2023/06/24 05:11:41;;;;;;;8.57;5.90;;;;;;;;;;5051840;28;20210;-82
2023/06/24 05:14:08;;;;;;;8.07;6.13;;;;;;;;;;5050681;28;20238;-82
2023/06/24 05:16:37;;;;;;;6.70;5.50;;;;;;;;;;5051393;28;20214;-82
2023/06/24 05:19:04;;;;;;;7.30;6.60;;;;;;;;;;5050964;28;20234;-82
2023/06/24 05:21:31;;;;;;;8.50;6.40;;;;;;;;;;5051323;28;20659;-83
2023/06/24 05:23:58;;;;;;;8.00;6.67;;;;;;;;;;5050790;28;20337;-83
2023/06/24 05:26:25;;;;;;;9.30;6.40;;;;;;;;;;5051058;28;20217;-83
2023/06/24 05:28:52;;;;;;;6.47;5.87;;;;;;;;;;5050921;28;20238;-82
2023/06/24 05:31:19;;;;;;;6.17;5.53;;;;;;;;;;5051399;28;20206;-82
2023/06/24 05:33:48;;;;;;;8.53;6.40;;;;;;;;;;5050687;28;20230;-82
2023/06/24 05:36:15;;;;;;;6.97;5.50;;;;;;;;;;5045199;28;20230;-82
2023/06/24 05:38:42;;;;;;;10.63;5.57;;;;;;;;;;5010890;28;20238;-82
2023/06/24 05:41:09;;;;;;;6.70;6.00;;;;;;;;;;5011518;28;20211;-81
2023/06/24 05:43:36;;;;;;;6.30;5.67;;;;;;;;;;5013327;28;20239;-82
2023/06/24 05:46:04;;;;;;;7.70;5.53;;;;;;;;;;5014967;28;20242;-82
2023/06/24 05:48:31;;;;;;;8.33;5.60;;;;;;;;;;5014520;28;20318;-82
2023/06/24 05:50:59;;;;;;;8.53;5.73;;;;;;;;;;5015020;28;20604;-82
2023/06/24 05:53:26;;;;;;;5.80;5.30;;;;;;;;;;5014121;28;20605;-82
2023/06/24 05:55:53;;;;;;;5.47;4.93;;;;;;;;;;5014980;28;20192;-82
2023/06/24 05:58:20;;;;;;;6.90;5.73;;;;;;;;;;5014111;28;20211;-82
2023/06/24 06:00:47;;;;;;;5.80;5.20;;;;;;;;;;5014472;28;20555;-82
2023/06/24 06:03:14;;;;;;;5.20;4.70;;;;;;;;;;5027056;28;20210;-82
2023/06/24 06:05:41;;;;;;;5.17;4.70;;;;;;;;;;5016428;28;20218;-82
2023/06/24 06:08:10;;;;;;;4.90;4.40;;;;;;;;;;5014703;28;20705;-82
2023/06/24 06:10:37;;;;;;;5.37;4.87;;;;;;;;;;5009912;28;20467;-82
2023/06/24 06:13:04;;;;;;;5.60;4.40;;;;;;;;;;5014617;28;20192;-82
2023/06/24 06:15:31;;;;;;;4.50;4.10;;;;;;;;;;5014052;28;20228;-83
2023/06/24 06:17:58;;;;;;;6.00;4.63;;;;;;;;;;5014492;28;20621;-80
2023/06/24 06:20:25;;;;;;;5.80;4.73;;;;;;;;;;5014036;28;20238;-81
2023/06/24 06:22:52;;;;;;;4.83;4.30;;;;;;;;;;5014472;28;20215;-81
2023/06/24 06:25:21;;;;;;;5.80;4.63;;;;;;;;;;5013708;28;20239;-81
2023/06/24 06:27:49;;;;;;;4.85;4.03;;;;;;;;;;5014518;28;20207;-81
2023/06/24 06:30:17;;;;;;;6.05;4.65;;;;;;;;;;5013855;28;20253;-81
2023/06/24 06:32:44;;;;;;;4.25;3.85;;;;;;;;;;5014433;28;20191;-87
2023/06/24 06:35:11;;;;;;;4.93;4.30;;;;;;;;;;5013481;28;20247;-81
2023/06/24 06:37:38;;;;;;;5.82;4.18;;;;;;;;;;5013652;28;20203;-81
2023/06/24 06:40:06;;;;;;;4.07;3.67;;;;;;;;;;5036473;28;20256;-82
2023/06/24 06:42:35;;;;;;;4.53;3.80;;;;;;;;;;5054029;28;20206;-83
2023/06/24 06:45:02;;;;;;;4.18;3.60;;;;;;;;;;5042820;28;20295;-83
2023/06/24 06:47:29;;;;;;;4.47;4.07;;;;;;;;;;5053677;28;20664;-83
2023/06/24 06:49:56;;;;;;;6.55;4.13;;;;;;;;;;5053371;28;20234;-87
2023/06/24 06:52:23;;;;;;;5.00;4.50;;;;;;;;;;5054111;28;20232;-82
2023/06/24 06:54:50;;;;;;;4.45;4.00;;;;;;;;;;5052621;28;20244;-83
2023/06/24 06:57:17;;;;;;;4.00;3.58;;;;;;;;;;5053145;28;20668;-81
2023/06/24 06:59:46;;;;;;;5.10;4.32;;;;;;;;;;5052948;28;20241;-82
2023/06/24 07:02:13;;;;;;;4.90;4.38;;;;;;;;;;5053253;28;20586;-81
2023/06/24 07:04:40;;;;;;;7.28;5.38;;;;;;;;;;5052546;28;20238;-81
2023/06/24 07:07:07;;;;;;;5.28;4.72;;;;;;;;;;5053235;28;20209;-83
2023/06/24 07:09:34;;;;;;;5.10;4.32;;;;;;;;;;5052638;28;20237;-83
2023/06/24 07:12:01;;;;;;;8.15;4.85;;;;;;;;;;5053240;28;20210;-81
2023/06/24 07:14:28;;;;;;;6.90;4.55;;;;;;;;;;5052657;28;20242;-81
2023/06/24 07:16:57;;;;;;;5.75;4.20;;;;;;;;;;5053112;28;20213;-81
2023/06/24 07:19:24;;;;;;;5.88;4.15;;;;;;;;;;5052578;28;20238;-81
2023/06/24 07:21:51;;;;;;;6.22;4.40;;;;;;;;;;5048373;28;20729;-81
2023/06/24 07:24:18;;;;;;;6.38;4.10;;;;;;;;;;5052674;28;20233;-81
2023/06/24 07:26:45;;;;;;;5.68;4.28;;;;;;;;;;5052908;28;20206;-83
2023/06/24 07:29:12;;;;;;;5.55;4.43;;;;;;;;;;5053084;28;20238;-82
2023/06/24 07:31:39;;;;;;;5.13;4.63;;;;;;;;;;5053031;28;20202;-82
2023/06/24 07:34:07;;;;;;;4.43;4.03;;;;;;;;;;5052140;28;20622;-85
2023/06/24 07:36:35;;;;;;;5.10;4.45;;;;;;;;;;5053454;28;20583;-86
2023/06/24 07:39:02;;;;;;;6.20;4.18;;;;;;;;;;5052167;28;20700;-83
2023/06/24 07:41:29;;;;;;;5.13;4.13;;;;;;;;;;5052433;28;20284;-85
2023/06/24 07:43:56;;;;;;;5.70;4.20;;;;;;;;;;5051752;28;20238;-87
2023/06/24 07:46:23;;;;;;;4.40;4.00;;;;;;;;;;5032432;28;20203;-86
2023/06/24 07:48:50;;;;;;;5.05;3.95;;;;;;;;;;5032376;28;20234;-86
2023/06/24 07:51:19;;;;;;;4.95;3.90;;;;;;;;;;5033044;28;20202;-86
2023/06/24 07:53:46;;;;;;;4.40;4.00;;;;;;;;;;5031128;28;20245;-84
2023/06/24 07:56:13;;;;;;;4.53;4.00;;;;;;;;;;5031487;28;20681;-86
2023/06/24 07:58:40;;;;;;;4.40;4.00;;;;;;;;;;5031944;28;20597;-89
2023/06/24 08:01:07;;;;;;;5.78;4.68;;;;;;;;;;5035453;28;20692;-86
2023/06/24 08:03:36;;;;;;;7.70;4.25;;;;;;;;;;5033881;28;20599;-90
2023/06/24 08:06:03;;;;;;;4.88;4.03;;;;;;;;;;5034660;28;20744;-89
2023/06/24 08:08:32;;;;;;;6.28;4.47;;;;;;;;;;5034215;28;20230;-92
2023/06/24 08:10:59;;;;;;;4.68;4.28;;;;;;;;;;5034860;28;20214;-87
2023/06/24 08:13:26;;;;;;;4.55;4.15;;;;;;;;;;5031548;28;20227;-86
2023/06/24 08:15:53;;;;;;;5.55;4.28;;;;;;;;;;5032696;28;20198;-88
2023/06/24 08:18:20;;;;;;;4.80;3.83;;;;;;;;;;5031746;28;20210;-85
2023/06/24 08:20:47;;;;;;;4.57;3.92;;;;;;;;;;5032020;28;20317;-86
2023/06/24 08:23:14;;;;;;;6.10;3.95;;;;;;;;;;5030997;28;20688;-86
2023/06/24 08:25:42;;;;;;;5.80;3.70;;;;;;;;;;5031698;28;20214;-86
2023/06/24 08:28:09;;;;;;;7.13;4.78;;;;;;;;;;5025963;28;20222;-86
2023/06/24 08:30:37;;;;;;;4.55;4.05;;;;;;;;;;5031465;28;20235;-85
2023/06/24 08:33:04;;;;;;;4.50;4.10;;;;;;;;;;5031886;28;20217;-88
2023/06/24 08:35:31;;;;;;;5.75;3.40;;;;;;;;;;5031748;28;20234;-87
2023/06/24 08:37:58;;;;;;;4.15;3.67;;;;;;;;;;5033001;28;20210;-87
2023/06/24 08:40:25;;;;;;;4.70;4.03;;;;;;;;;;5031615;28;20237;-86
2023/06/24 08:42:54;;;;;;;4.10;3.35;;;;;;;;;;5032139;28;20198;-86
2023/06/24 08:45:21;;;;;;;3.53;2.90;;;;;;;;;;5031305;28;20700;-86
2023/06/24 08:47:49;;;;;;;3.25;2.95;;;;;;;;;;5032304;28;20549;-87
2023/06/24 08:50:17;;;;;;;3.90;2.70;;;;;;;;;;5031335;28;20238;-87
2023/06/24 08:52:46;;;;;;;3.47;3.17;;;;;;;;;;5032069;28;20206;-87
2023/06/24 08:55:14;;;;;;;3.35;3.03;;;;;;;;;;5031330;28;20238;-86
2023/06/24 08:57:41;;;;;;;5.35;3.67;;;;;;;;;;5031764;28;20289;-87
2023/06/24 09:00:10;;;;;;;5.65;3.70;;;;;;;;;;5033047;28;20233;-87
2023/06/24 09:02:38;;;;;;;3.45;3.15;;;;;;;;;;5032585;28;20707;-85
2023/06/24 09:05:05;;;;;;;8.48;3.78;;;;;;;;;;5031577;28;20262;-90
2023/06/24 09:07:32;;;;;;;5.85;3.47;;;;;;;;;;5031250;28;20206;-81
2023/06/24 09:10:01;;;;;;;5.97;3.33;;;;;;;;;;5045428;28;20233;-82
2023/06/24 09:12:28;;;;;;;4.05;3.65;;;;;;;;;;5051305;28;20229;-81
2023/06/24 09:14:55;;;;;;;3.83;3.13;;;;;;;;;;5050688;28;20732;-82
2023/06/24 09:17:23;;;;;;;3.83;3.45;;;;;;;;;;5051717;28;20213;-83
2023/06/24 09:19:51;;;;;;;3.67;3.28;;;;;;;;;;5048570;28;20226;-83
2023/06/24 09:22:18;;;;;;;4.13;3.20;;;;;;;;;;5030161;28;20206;-83
2023/06/24 09:24:46;;;;;;;4.03;3.55;;;;;;;;;;5033905;28;20249;-82
2023/06/24 09:27:14;;;;;;;3.92;3.53;;;;;;;;;;5034699;28;20242;-83
2023/06/24 09:29:41;;;;;;;4.25;3.50;;;;;;;;;;5033826;28;20231;-81
2023/06/24 09:32:09;;;;;;;3.88;3.58;;;;;;;;;;5034325;28;20203;-82
2023/06/24 09:34:37;;;;;;;4.45;3.38;;;;;;;;;;5033386;28;20242;-82
2023/06/24 09:37:04;;;;;;;3.58;3.28;;;;;;;;;;5034172;28;20203;-82
2023/06/24 09:39:36;;;;;;;3.53;3.25;;;;;;;;;;5033605;28;20236;-82
2023/06/24 09:42:04;;;;;;;3.83;3.20;;;;;;;;;;5029338;28;20237;-82
2023/06/24 09:44:31;;;;;;;3.97;3.20;;;;;;;;;;5033329;28;20851;-82
2023/06/24 09:46:59;;;;;;;4.35;3.25;;;;;;;;;;5039209;28;20249;-81
2023/06/24 09:49:26;;;;;;;2.90;2.50;;;;;;;;;;5036115;28;20608;-81
2023/06/24 09:51:57;;;;;;;4.32;3.33;;;;;;;;;;5037562;28;20694;-82
2023/06/24 09:54:26;;;;;;;3.28;3.08;;;;;;;;;;5028065;28;20235;-82
2023/06/24 09:56:53;;;;;;;3.50;3.20;;;;;;;;;;5040863;28;20210;-81
2023/06/24 09:59:21;;;;;;;3.10;2.83;;;;;;;;;;5044942;28;20291;-82
2023/06/24 10:01:49;;;;;;;4.72;3.03;;;;;;;;;;5039315;28;20207;-81
2023/06/24 10:04:17;;;;;;;3.58;3.00;;;;;;;;;;5043818;28;20716;-82
2023/06/24 10:06:45;;;;;;;3.80;3.50;;;;;;;;;;5038700;28;20233;-81
2023/06/24 10:09:16;;;;;;;4.75;3.03;;;;;;;;;;5043159;28;20237;-81
2023/06/24 10:11:43;;;;;;;3.13;2.85;;;;;;;;;;5038827;28;20237;-81
2023/06/24 10:14:11;;;;;;;3.15;2.85;;;;;;;;;;5032975;28;20234;-82
2023/06/24 10:16:38;;;;;;;3.25;2.90;;;;;;;;;;5038518;28;20244;-82
2023/06/24 10:19:05;;;;;;;3.17;2.85;;;;;;;;;;5035434;28;20226;-80
2023/06/24 10:21:48;;;;;;;2.92;2.72;;;;;;;;;;5041749;28;20305;-80
2023/06/24 10:24:28;;;;;;;4.40;3.17;;;;;;;;;;5032740;28;20245;-80
2023/06/24 10:26:56;;;;;;;3.58;2.50;;;;;;;;;;5033219;28;20296;-80
2023/06/24 10:29:32;;;;;;;4.18;2.90;;;;;;;;;;5036751;28;20235;-80
2023/06/24 10:32:02;;;;;;;3.33;3.03;;;;;;;;;;5032797;28;20281;-81
2023/06/24 10:34:30;;;;;;;5.22;3.20;;;;;;;;;;5037050;28;20303;-80
2023/06/24 10:36:57;;;;;;;3.03;2.72;;;;;;;;;;5044825;28;20214;-80
2023/06/24 10:39:38;;;;;;;3.30;3.00;;;;;;;;;;5052265;28;20221;-80
2023/06/24 10:42:24;;;;;;;3.58;3.28;;;;;;;;;;5050528;28;20197;-80
2023/06/24 10:44:51;;;;;;;3.20;2.65;;;;;;;;;;5036430;28;20238;-80
2023/06/24 10:47:19;;;;;;;5.05;2.67;;;;;;;;;;5029190;28;20214;-80
2023/06/24 10:49:46;;;;;;;2.63;2.42;;;;;;;;;;5031895;28;20226;-80
2023/06/24 10:52:14;;;;;;;3.50;3.20;;;;;;;;;;5033768;28;20206;-79
2023/06/24 10:54:43;;;;;;;3.40;2.70;;;;;;;;;;5039730;28;20237;-80
2023/06/24 10:57:13;;;;;;;3.58;2.95;;;;;;;;;;5032397;28;20213;-79
2023/06/24 10:59:41;;;;;;;3.63;2.80;;;;;;;;;;5036446;28;20221;-80
2023/06/24 11:02:09;;;;;;;4.68;2.60;;;;;;;;;;5047991;28;20202;-80
2023/06/24 11:04:43;;;;;;;3.88;2.80;;;;;;;;;;5043804;28;20317;-80
2023/06/24 11:07:10;;;;;;;3.58;2.88;;;;;;;;;;5042463;28;20206;-80
2023/06/24 11:09:37;;;;;;;4.65;2.83;;;;;;;;;;5029993;28;20234;-79
2023/06/24 11:12:06;;;;;;;3.40;3.10;;;;;;;;;;5042152;28;20212;-80
2023/06/24 11:14:34;;;;;;;3.35;2.58;;;;;;;;;;5047012;28;20234;-79
2023/06/24 11:17:02;;;;;;;3.38;2.97;;;;;;;;;;5031618;28;20230;-80
2023/06/24 11:19:29;;;;;;;2.55;2.35;;;;;;;;;;5031227;28;20309;-80
2023/06/24 11:21:58;;;;;;;2.97;2.72;;;;;;;;;;5031200;28;20202;-80
2023/06/24 11:24:25;;;;;;;2.70;2.50;;;;;;;;;;5030886;28;20238;-81
2023/06/24 11:26:52;;;;;;;2.70;2.50;;;;;;;;;;5031681;28;20209;-81
2023/06/24 11:29:21;;;;;;;3.55;2.92;;;;;;;;;;5031743;28;20230;-82
2023/06/24 11:31:48;;;;;;;3.08;2.50;;;;;;;;;;5032073;28;20210;-83
2023/06/24 11:34:15;;;;;;;4.47;2.42;;;;;;;;;;5031853;28;20234;-81
2023/06/24 11:36:42;;;;;;;2.55;2.35;;;;;;;;;;5031688;28;20217;-80
2023/06/24 11:39:21;;;;;;;4.05;2.65;;;;;;;;;;5031734;28;20234;-80
2023/06/24 11:41:48;;;;;;;2.97;2.28;;;;;;;;;;5031210;28;20209;-80
2023/06/24 11:44:15;;;;;;;2.33;2.10;;;;;;;;;;5031482;28;20230;-80
2023/06/24 11:46:43;;;;;;;3.88;2.47;;;;;;;;;;5027313;28;20812;-79
2023/06/24 11:49:11;;;;;;;3.17;2.40;;;;;;;;;;5029301;28;20583;-80
2023/06/24 11:51:41;;;;;;;2.83;2.53;;;;;;;;;;5028633;28;20234;-81
2023/06/24 11:54:08;;;;;;;2.85;2.35;;;;;;;;;;5030261;28;20242;-80
2023/06/24 11:56:36;;;;;;;3.83;2.30;;;;;;;;;;5030482;28;20206;-79
2023/06/24 11:59:05;;;;;;;3.20;2.35;;;;;;;;;;5030734;28;20707;-79
2023/06/24 12:01:32;;;;;;;2.50;2.30;;;;;;;;;;5031217;28;20618;-80
2023/06/24 12:04:02;;;;;;;2.70;2.50;;;;;;;;;;5030253;28;20266;-80
2023/06/24 12:06:29;;;;;;;3.60;2.60;;;;;;;;;;5030733;28;20209;-79
2023/06/24 12:08:56;;;;;;;2.88;2.67;;;;;;;;;;5029934;28;20234;-79
2023/06/24 12:11:23;;;;;;;2.83;2.60;;;;;;;;;;5031545;28;20238;-77
2023/06/24 12:13:50;;;;;;;3.33;2.38;;;;;;;;;;5030649;28;20609;-80
2023/06/24 12:16:17;;;;;;;1.95;1.85;;;;;;;;;;5031275;28;20202;-79
2023/06/24 12:18:44;;;;;;;2.67;2.47;;;;;;;;;;5030596;28;20236;-80
2023/06/24 12:21:13;;;;;;;3.03;2.22;;;;;;;;;;5031800;28;20201;-80
2023/06/24 12:23:40;;;;;;;4.68;2.40;;;;;;;;;;5030736;28;20738;-79
2023/06/24 12:26:07;;;;;;;2.70;2.50;;;;;;;;;;5031414;28;20202;-79
2023/06/24 12:28:34;;;;;;;2.72;2.53;;;;;;;;;;5030390;28;20234;-79
2023/06/24 12:31:01;;;;;;;2.88;2.67;;;;;;;;;;5031016;28;20225;-81
2023/06/24 12:33:28;;;;;;;2.65;2.45;;;;;;;;;;5031543;28;20233;-82
2023/06/24 12:35:55;;;;;;;2.58;2.38;;;;;;;;;;5031024;28;20210;-81
2023/06/24 12:38:23;;;;;;;2.78;2.58;;;;;;;;;;5030686;28;20960;-87
2023/06/24 12:40:52;;;;;;;3.95;2.42;;;;;;;;;;5030976;28;20232;-81
2023/06/24 12:43:19;;;;;;;2.60;2.40;;;;;;;;;;5030543;28;20721;-80
2023/06/24 12:45:46;;;;;;;2.50;2.30;;;;;;;;;;5030291;28;20198;-81
2023/06/24 12:48:14;;;;;;;3.33;2.67;;;;;;;;;;5030605;28;20198;-82
2023/06/24 12:50:41;;;;;;;2.80;2.60;;;;;;;;;;5031012;28;20222;-81
2023/06/24 12:53:10;;;;;;;3.00;2.70;;;;;;;;;;5030190;28;20755;-81
2023/06/24 12:55:38;;;;;;;3.42;2.42;;;;;;;;;;5034753;28;20314;-81
2023/06/24 12:58:06;;;;;;;2.88;2.65;;;;;;;;;;5035414;28;20193;-80
2023/06/24 13:00:36;;;;;;;3.08;2.78;;;;;;;;;;5033210;28;20682;-80
2023/06/24 13:03:04;;;;;;;2.92;2.63;;;;;;;;;;5035186;28;20640;-80
2023/06/24 13:05:31;;;;;;;4.13;2.55;;;;;;;;;;5034393;28;20735;-79
2023/06/24 13:07:58;;;;;;;3.13;2.80;;;;;;;;;;5034724;28;20206;-80
2023/06/24 13:10:25;;;;;;;3.75;2.70;;;;;;;;;;5034359;28;20716;-80
2023/06/24 13:12:55;;;;;;;3.42;3.13;;;;;;;;;;5034768;28;20202;-80
2023/06/24 13:15:23;;;;;;;2.60;2.40;;;;;;;;;;5033880;28;20329;-80
2023/06/24 13:17:50;;;;;;;2.75;2.55;;;;;;;;;;5034511;28;20665;-80
2023/06/24 13:20:17;;;;;;;4.07;2.58;;;;;;;;;;5034261;28;20234;-80
2023/06/24 13:22:45;;;;;;;5.10;2.60;;;;;;;;;;5034593;28;20217;-80
2023/06/24 13:25:12;;;;;;;2.47;2.33;;;;;;;;;;5034066;28;20243;-80
2023/06/24 13:27:39;;;;;;;3.00;2.70;;;;;;;;;;5034411;28;20206;-80
2023/06/24 13:30:08;;;;;;;2.70;2.50;;;;;;;;;;5034056;28;20230;-80
2023/06/24 13:32:35;;;;;;;3.33;2.45;;;;;;;;;;5034254;28;20202;-81
2023/06/24 13:35:02;;;;;;;3.13;2.80;;;;;;;;;;5033954;28;20246;-81
2023/06/24 13:37:30;;;;;;;3.28;2.50;;;;;;;;;;5034050;28;20210;-81
2023/06/24 13:39:57;;;;;;;3.38;2.78;;;;;;;;;;5033860;28;20893;-80
2023/06/24 13:42:26;;;;;;;3.10;2.72;;;;;;;;;;5034393;28;20665;-80
2023/06/24 13:44:53;;;;;;;3.35;2.45;;;;;;;;;;5033788;28;20265;-81
2023/06/24 13:47:22;;;;;;;3.15;2.90;;;;;;;;;;5034063;28;20699;-80
2023/06/24 13:49:49;;;;;;;3.47;2.75;;;;;;;;;;5033862;28;20264;-80
2023/06/24 13:52:16;;;;;;;2.90;2.70;;;;;;;;;;5034088;28;20252;-80
2023/06/24 13:54:44;;;;;;;3.45;3.15;;;;;;;;;;5042085;28;20644;-81
2023/06/24 13:57:11;;;;;;;2.35;2.25;;;;;;;;;;5052295;28;20580;-80
2023/06/24 13:59:38;;;;;;;2.72;2.53;;;;;;;;;;5037516;28;20230;-80
2023/06/24 14:02:05;;;;;;;2.67;2.47;;;;;;;;;;5033901;28;20232;-79
2023/06/24 14:04:33;;;;;;;4.75;3.08;;;;;;;;;;5032363;28;20612;-79
2023/06/24 14:07:02;;;;;;;3.45;3.15;;;;;;;;;;5033618;28;20210;-79
2023/06/24 14:09:29;;;;;;;2.90;2.60;;;;;;;;;;5033449;28;20234;-79
2023/06/24 14:11:56;;;;;;;3.00;2.70;;;;;;;;;;5036989;28;20218;-79
2023/06/24 14:14:23;;;;;;;6.13;3.08;;;;;;;;;;5033261;28;20394;-78
2023/06/24 14:16:50;;;;;;;3.13;2.83;;;;;;;;;;5033206;28;20246;-78
2023/06/24 14:19:17;;;;;;;3.28;2.97;;;;;;;;;;5029559;28;20231;-79
2023/06/24 14:21:45;;;;;;;3.60;2.80;;;;;;;;;;5032123;28;20582;-78
2023/06/24 14:24:12;;;;;;;2.80;2.60;;;;;;;;;;5033116;28;20230;-79
2023/06/24 14:26:39;;;;;;;3.35;2.85;;;;;;;;;;5033316;28;20214;-80
2023/06/24 14:29:06;;;;;;;3.22;2.92;;;;;;;;;;5033060;28;20231;-79
2023/06/24 14:31:33;;;;;;;2.70;2.50;;;;;;;;;;5033513;28;20263;-80
2023/06/24 14:34:00;;;;;;;3.80;2.83;;;;;;;;;;5032973;28;20605;-81
2023/06/24 14:36:27;;;;;;;3.00;2.40;;;;;;;;;;5033519;28;20213;-80
2023/06/24 14:38:56;;;;;;;3.15;2.92;;;;;;;;;;5032759;28;20241;-81
2023/06/24 14:41:23;;;;;;;3.20;2.90;;;;;;;;;;5033766;28;20199;-81
2023/06/24 14:43:50;;;;;;;3.05;2.75;;;;;;;;;;5032526;28;20258;-82
2023/06/24 14:46:17;;;;;;;2.90;2.70;;;;;;;;;;5033082;28;20616;-81